createdAt,value
2022-11-02T00:01:37.010Z,99215.94
2022-11-02T00:06:41.895Z,99216.53
2022-11-02T00:11:46.668Z,99220.56
2022-11-02T00:16:54.607Z,99216.03
2022-11-02T00:22:02.014Z,99229.00
2022-11-02T00:27:06.979Z,99226.34
2022-11-02T00:32:14.296Z,99226.56
2022-11-02T00:37:19.080Z,99237.03
2022-11-02T00:42:24.061Z,99241.19
2022-11-02T00:47:31.757Z,99243.34
2022-11-02T00:52:36.832Z,99244.00
2022-11-02T00:57:42.735Z,99244.03
2022-11-02T01:02:50.229Z,99246.69
2022-11-02T01:07:55.841Z,99243.53
2022-11-02T01:13:00.722Z,99238.72
2022-11-02T01:18:08.612Z,99229.41
2022-11-02T01:23:13.520Z,99220.63
2022-11-02T01:28:19.034Z,99231.84
2022-11-02T01:33:26.474Z,99233.00
2022-11-02T01:38:33.933Z,99228.72
2022-11-02T01:43:39.776Z,99229.53
2022-11-02T01:48:50.630Z,99223.91
2022-11-02T01:53:57.848Z,99209.69
2022-11-02T01:59:08.360Z,99213.16
2022-11-02T02:04:16.167Z,99214.47
2022-11-02T02:09:22.362Z,99224.00
2022-11-02T02:14:27.639Z,99226.19
2022-11-02T02:19:44.337Z,99228.59
2022-11-02T02:25:00.254Z,99227.00
2022-11-02T02:30:10.697Z,99227.47
2022-11-02T02:35:27.441Z,99226.66
2022-11-02T02:40:38.356Z,99221.69
2022-11-02T02:45:49.713Z,99226.22
2022-11-02T02:50:59.852Z,99221.97
2022-11-02T02:56:07.064Z,99222.75
2022-11-02T03:01:19.778Z,99226.47
2022-11-02T03:06:29.102Z,99234.41
2022-11-02T03:11:36.858Z,99230.72
2022-11-02T03:17:05.002Z,99239.94
2022-11-02T03:22:20.999Z,99227.25
2022-11-02T03:27:37.485Z,99222.50
2022-11-02T03:32:56.461Z,99226.75
2022-11-02T03:38:05.247Z,99232.53
2022-11-02T03:43:11.272Z,99234.66
2022-11-02T03:48:22.084Z,99235.47
2022-11-02T03:53:37.211Z,99238.63
2022-11-02T03:58:42.139Z,99247.38
2022-11-02T04:03:52.430Z,99234.66
2022-11-02T04:08:57.716Z,99238.91
2022-11-02T04:14:15.505Z,99248.94
2022-11-02T04:19:30.883Z,99237.28
2022-11-02T04:24:51.608Z,99236.28
2022-11-02T04:29:57.228Z,99230.72
2022-11-02T04:35:07.610Z,99234.69
2022-11-02T04:40:15.538Z,99238.09
2022-11-02T04:45:22.087Z,99231.25
2022-11-02T04:50:33.854Z,99228.38
2022-11-02T04:55:40.218Z,99229.16
2022-11-02T05:00:45.785Z,99223.66
2022-11-02T05:05:59.567Z,99220.84
2022-11-02T05:11:05.512Z,99225.16
2022-11-02T05:16:22.223Z,99219.84
2022-11-02T05:21:32.900Z,99215.28
2022-11-02T05:26:37.926Z,99227.75
2022-11-02T05:31:43.197Z,99229.38
2022-11-02T05:36:51.321Z,99237.03
2022-11-02T05:41:57.213Z,99239.44
2022-11-02T05:47:02.236Z,99238.97
2022-11-02T05:52:10.721Z,99235.09
2022-11-02T05:57:17.197Z,99246.72
2022-11-02T06:02:24.748Z,99245.75
2022-11-02T06:07:33.105Z,99229.88
2022-11-02T06:12:38.421Z,99231.81
2022-11-02T06:17:45.892Z,99245.28
2022-11-02T06:22:53.438Z,99253.59
2022-11-02T06:28:02.726Z,99258.22
2022-11-02T06:33:11.827Z,99263.94
2022-11-02T06:38:27.380Z,99273.44
2022-11-02T06:43:32.623Z,99265.56
2022-11-02T06:48:37.521Z,99259.94
2022-11-02T06:54:02.242Z,99256.38
2022-11-02T06:59:13.342Z,99258.84
2022-11-02T07:04:18.440Z,99252.50
2022-11-02T07:09:25.906Z,99261.41
2022-11-02T07:14:30.724Z,99263.59
2022-11-02T07:19:35.862Z,99271.50
2022-11-02T07:24:46.984Z,99276.28
2022-11-02T07:29:52.308Z,99279.81
2022-11-02T07:34:57.210Z,99279.72
2022-11-02T07:40:04.907Z,99274.00
2022-11-02T07:45:12.945Z,99268.66
2022-11-02T07:50:23.862Z,99268.75
2022-11-02T07:55:36.051Z,99263.31
2022-11-02T08:00:46.932Z,99265.44
2022-11-02T08:05:52.387Z,99256.16
2022-11-02T08:11:10.120Z,99253.44
2022-11-02T08:16:16.025Z,99259.00
2022-11-02T08:21:20.915Z,99264.91
2022-11-02T08:26:55.719Z,99264.66
2022-11-02T08:32:04.415Z,99266.22
2022-11-02T08:37:11.218Z,99268.91
2022-11-02T08:42:22.885Z,99268.84
2022-11-02T08:47:27.910Z,99254.06
2022-11-02T08:52:47.812Z,99258.09
2022-11-02T08:57:59.777Z,99269.84
2022-11-02T09:03:08.367Z,99263.59
2022-11-02T09:08:16.959Z,99268.31
2022-11-02T09:13:25.722Z,99270.56
2022-11-02T09:18:34.445Z,99274.03
2022-11-02T09:23:39.335Z,99275.13
2022-11-02T09:28:46.826Z,99272.50
2022-11-02T09:33:51.967Z,99268.63
2022-11-02T09:38:57.087Z,99284.59
2022-11-02T09:44:14.399Z,99277.97
2022-11-02T09:49:23.421Z,99281.56
2022-11-02T09:54:32.454Z,99288.84
2022-11-02T09:59:40.753Z,99296.41
2022-11-02T10:05:03.547Z,99299.22
2022-11-02T10:10:16.454Z,99300.50
2022-11-02T10:15:28.881Z,99309.84
2022-11-02T10:20:40.767Z,99288.59
2022-11-02T10:25:45.817Z,99303.19
2022-11-02T10:30:55.745Z,99303.03
2022-11-02T10:36:28.573Z,99297.09
2022-11-02T10:41:45.268Z,99292.41
2022-11-02T10:47:06.742Z,99295.47
2022-11-02T10:52:18.339Z,99296.41
2022-11-02T10:57:28.386Z,99299.78
2022-11-02T11:02:36.159Z,99280.91
2022-11-02T11:07:42.311Z,99285.69
2022-11-02T11:12:47.430Z,99297.53
2022-11-02T11:23:25.403Z,99308.75
2022-11-02T11:28:33.780Z,99301.00
2022-11-02T11:33:51.944Z,99300.56
2022-11-02T11:39:00.575Z,99306.00
2022-11-02T11:44:07.748Z,99301.88
2022-11-02T11:50:02.923Z,99294.94
2022-11-02T11:55:00.158Z,99286.06
2022-11-02T12:00:28.992Z,99286.97
2022-11-02T12:05:50.497Z,99288.03
2022-11-02T12:11:09.522Z,99283.09
2022-11-02T12:16:21.484Z,99292.56
2022-11-02T12:21:47.142Z,99294.91
2022-11-02T12:27:12.552Z,99292.69
2022-11-02T12:32:35.199Z,99286.03
2022-11-02T12:38:02.166Z,99299.84
2022-11-02T12:43:29.221Z,99294.84
2022-11-02T12:48:45.219Z,99296.78
2022-11-02T12:53:58.354Z,99301.06
2022-11-02T12:59:03.847Z,99305.09
2022-11-02T13:04:17.443Z,99297.16
2022-11-02T13:09:33.746Z,99314.25
2022-11-02T13:14:43.515Z,99314.50
2022-11-02T13:19:53.003Z,99303.84
2022-11-02T13:25:09.149Z,99301.47
2022-11-02T13:30:20.375Z,99285.94
2022-11-02T13:35:32.461Z,99303.59
2022-11-02T13:40:46.299Z,99300.91
2022-11-02T13:46:04.068Z,99301.66
2022-11-02T13:51:19.449Z,99305.06
2022-11-02T13:56:30.932Z,99308.09
2022-11-02T14:01:39.071Z,99313.97
2022-11-02T14:06:56.589Z,99316.31
2022-11-02T14:12:30.339Z,99320.47
2022-11-02T14:18:15.561Z,99326.72
2022-11-02T14:23:41.194Z,99314.38
2022-11-02T14:28:51.086Z,99305.38
2022-11-02T14:34:13.181Z,99302.53
2022-11-02T14:39:30.176Z,99312.66
2022-11-02T14:45:20.632Z,99303.50
2022-11-02T14:50:29.667Z,99290.28
2022-11-02T14:55:37.763Z,99297.66
2022-11-02T15:01:01.437Z,99307.28
2022-11-02T15:06:19.462Z,99314.06
2022-11-02T15:11:48.931Z,99324.53
2022-11-02T15:17:07.151Z,99336.66
2022-11-02T15:22:39.284Z,99324.88
2022-11-02T15:27:47.266Z,99323.28
2022-11-02T15:33:01.887Z,99327.03
2022-11-02T15:38:17.586Z,99333.16
2022-11-02T15:43:45.094Z,99339.16
2022-11-02T15:49:00.226Z,99344.25
2022-11-02T15:54:22.844Z,99356.28
2022-11-02T15:59:51.038Z,99351.53
2022-11-02T16:05:03.869Z,99368.03
2022-11-02T16:10:30.296Z,99375.38
2022-11-02T16:15:35.255Z,99385.75
2022-11-02T16:20:42.992Z,99387.78
2022-11-02T16:25:50.374Z,99391.56
2022-11-02T16:31:08.723Z,99394.22
2022-11-02T16:36:25.788Z,99402.94
2022-11-02T16:41:32.999Z,99400.38
2022-11-02T16:46:48.460Z,99401.28
2022-11-02T16:52:03.915Z,99409.88
2022-11-02T16:57:15.845Z,99415.22
2022-11-02T17:02:21.585Z,99419.38
2022-11-02T17:07:34.484Z,99421.75
2022-11-02T17:12:47.891Z,99427.59
2022-11-02T17:17:53.550Z,99433.25
2022-11-02T17:23:05.391Z,99436.78
2022-11-02T17:28:47.597Z,99431.25
2022-11-02T17:33:53.459Z,99434.50
2022-11-02T17:39:05.704Z,99427.38
2022-11-02T17:44:22.014Z,99424.97
2022-11-02T17:49:27.308Z,99423.28
2022-11-02T17:54:34.785Z,99421.44
2022-11-02T17:59:39.643Z,99425.50
2022-11-02T18:04:45.957Z,99425.22
2022-11-02T18:09:54.745Z,99423.47
2022-11-02T18:15:07.153Z,99433.75
2022-11-02T18:20:13.403Z,99431.34
2022-11-02T18:25:25.135Z,99434.66
2022-11-02T18:30:32.641Z,99434.78
2022-11-02T18:35:39.625Z,99442.16
2022-11-02T18:40:47.284Z,99440.38
2022-11-02T18:45:52.138Z,99439.16
2022-11-02T18:50:56.947Z,99444.78
2022-11-02T18:56:09.680Z,99448.44
2022-11-02T19:01:16.293Z,99442.94
2022-11-02T19:06:34.264Z,99440.91
2022-11-02T19:11:41.750Z,99437.06
2022-11-02T19:16:48.293Z,99437.50
2022-11-02T19:21:56.111Z,99447.94
2022-11-02T19:27:03.977Z,99450.28
2022-11-02T19:32:09.284Z,99448.66
2022-11-02T19:37:14.838Z,99452.47
2022-11-02T19:42:22.731Z,99450.06
2022-11-02T19:47:28.264Z,99455.44
2022-11-02T19:52:33.702Z,99447.53
2022-11-02T19:57:41.707Z,99446.22
2022-11-02T20:02:47.085Z,99448.06
2022-11-02T20:07:55.282Z,99449.09
2022-11-02T20:13:03.081Z,99445.97
2022-11-02T20:18:19.613Z,99457.09
2022-11-02T20:23:26.624Z,99454.97
2022-11-02T20:28:35.085Z,99459.22
2022-11-02T20:33:41.161Z,99457.88
2022-11-02T20:38:46.432Z,99453.38
2022-11-02T20:43:55.869Z,99473.22
2022-11-02T20:49:08.660Z,99469.78
2022-11-02T20:54:29.557Z,99483.25
2022-11-02T20:59:39.418Z,99480.88
2022-11-02T21:04:44.294Z,99481.38
2022-11-02T21:09:51.584Z,99479.50
2022-11-02T21:15:01.625Z,99485.53
2022-11-02T21:25:34.418Z,99488.63
2022-11-02T21:30:42.034Z,99493.38
2022-11-02T21:35:46.848Z,99500.78
2022-11-02T21:40:51.667Z,99496.94
2022-11-02T21:46:00.897Z,99494.91
2022-11-02T21:51:08.045Z,99504.38
2022-11-02T21:56:15.529Z,99512.78
2022-11-02T22:01:38.693Z,99507.44
2022-11-02T22:06:44.190Z,99503.94
2022-11-02T22:12:09.426Z,99503.06
2022-11-02T22:17:43.236Z,99494.13
2022-11-02T22:22:41.832Z,99485.59
2022-11-02T22:27:46.636Z,99488.56
2022-11-02T22:32:54.179Z,99489.38
2022-11-02T22:38:11.414Z,99491.69
2022-11-02T22:43:16.179Z,99490.50
2022-11-02T22:48:23.596Z,99483.09
2022-11-02T22:53:30.241Z,99483.66
2022-11-02T22:58:35.901Z,99478.56
2022-11-02T23:03:43.312Z,99480.47
2022-11-02T23:08:48.877Z,99495.56
2022-11-02T23:13:57.677Z,99495.13
2022-11-02T23:19:25.289Z,99488.31
2022-11-02T23:24:43.960Z,99489.91
2022-11-02T23:30:01.230Z,99495.47
2022-11-02T23:35:40.944Z,99491.16
2022-11-02T23:40:50.968Z,99491.69
2022-11-02T23:45:55.811Z,99488.59
2022-11-02T23:51:20.154Z,99493.75
2022-11-02T23:56:38.975Z,99489.16
